createdAt,value
2018-11-22T00:00:23.356Z,100885.38
2018-11-22T00:08:40.353Z,100890.59
2018-11-22T00:17:52.457Z,100887.47
2018-11-22T00:26:17.421Z,100896.81
2018-11-22T00:28:46.173Z,100897.48
2018-11-22T00:31:14.460Z,100898.11
2018-11-22T00:33:42.679Z,100897.12
2018-11-22T00:36:16.066Z,100897.85
2018-11-22T00:38:46.540Z,100902.37
2018-11-22T00:41:15.580Z,100907.29
2018-11-22T00:43:51.918Z,100901.87
2018-11-22T00:49:57.196Z,100900.86
2018-11-22T00:52:26.983Z,100906.44
2018-11-22T01:01:38.380Z,100912.43
2018-11-22T01:04:11.688Z,100912.17
2018-11-22T01:06:39.737Z,100910.16
2018-11-22T01:09:10.780Z,100913.22
2018-11-22T01:11:38.935Z,100916.41
2018-11-22T01:14:07.033Z,100918.11
2018-11-22T01:16:35.105Z,100919.95
2018-11-22T01:19:03.284Z,100920.86
2018-11-22T01:21:31.445Z,100919.44
2018-11-22T01:23:59.559Z,100924.25
2018-11-22T01:26:27.696Z,100919.00
2018-11-22T01:28:55.872Z,100915.13
2018-11-22T01:31:23.976Z,100920.00
2018-11-22T01:33:52.060Z,100919.06
2018-11-22T01:36:20.197Z,100923.72
2018-11-22T01:38:48.328Z,100920.87
2018-11-22T01:41:16.386Z,100922.88
2018-11-22T01:43:44.559Z,100926.75
2018-11-22T01:46:12.625Z,100923.41
2018-11-22T01:48:40.762Z,100922.23
2018-11-22T01:51:08.767Z,100915.88
2018-11-22T01:53:37.070Z,100918.42
2018-11-22T01:56:05.746Z,100922.49
2018-11-22T01:58:33.877Z,100924.94
2018-11-22T02:01:01.931Z,100925.73
2018-11-22T02:03:30.009Z,100919.47
2018-11-22T02:05:58.196Z,100917.89
2018-11-22T02:08:26.256Z,100921.17
2018-11-22T02:10:54.325Z,100925.36
2018-11-22T02:13:22.399Z,100925.09
2018-11-22T02:15:50.443Z,100924.08
2018-11-22T02:18:18.578Z,100919.44
2018-11-22T02:20:46.714Z,100925.84
2018-11-22T02:23:14.857Z,100924.41
2018-11-22T02:25:42.941Z,100923.77
2018-11-22T02:28:10.995Z,100926.48
2018-11-22T02:30:39.063Z,100930.40
2018-11-22T02:33:07.128Z,100927.39
2018-11-22T02:35:35.211Z,100926.65
2018-11-22T02:38:03.309Z,100927.37
2018-11-22T02:40:31.410Z,100923.97
2018-11-22T02:42:59.485Z,100929.65
2018-11-22T02:45:28.639Z,100932.81
2018-11-22T02:47:56.771Z,100930.30
2018-11-22T02:50:25.367Z,100921.95
2018-11-22T02:52:54.258Z,100934.88
2018-11-22T02:55:22.335Z,100927.69
2018-11-22T02:57:50.424Z,100930.66
2018-11-22T03:00:57.157Z,100927.97
2018-11-22T03:03:25.166Z,100932.69
2018-11-22T03:05:53.249Z,100930.77
2018-11-22T03:08:21.310Z,100934.96
2018-11-22T03:10:49.421Z,100936.95
2018-11-22T03:13:18.877Z,100937.08
2018-11-22T03:15:46.969Z,100936.89
2018-11-22T03:18:15.039Z,100937.02
2018-11-22T03:20:43.109Z,100933.05
2018-11-22T03:23:11.176Z,100932.23
2018-11-22T03:25:39.247Z,100936.89
2018-11-22T03:28:07.345Z,100936.20
2018-11-22T03:30:35.438Z,100931.66
2018-11-22T03:33:03.510Z,100932.89
2018-11-22T03:35:31.594Z,100927.44
2018-11-22T03:37:59.675Z,100929.82
2018-11-22T03:40:28.064Z,100929.34
2018-11-22T03:42:56.133Z,100930.02
2018-11-22T03:45:25.044Z,100926.39
2018-11-22T03:47:53.120Z,100922.05
2018-11-22T03:50:22.711Z,100930.10
2018-11-22T03:52:52.005Z,100927.31
2018-11-22T03:55:20.304Z,100924.75
2018-11-22T03:57:48.764Z,100932.80
2018-11-22T04:00:21.045Z,100923.72
2018-11-22T04:02:49.516Z,100924.66
2018-11-22T04:05:19.123Z,100925.82
2018-11-22T04:07:47.230Z,100926.83
2018-11-22T04:10:16.836Z,100926.30
2018-11-22T04:12:44.896Z,100922.73
2018-11-22T04:15:13.591Z,100931.72
2018-11-22T04:17:41.679Z,100930.04
2018-11-22T04:20:12.040Z,100918.63
2018-11-22T04:22:40.213Z,100927.66
2018-11-22T04:25:09.216Z,100927.37
2018-11-22T04:27:37.401Z,100927.61
2018-11-22T04:30:27.112Z,100929.53
2018-11-22T04:32:55.225Z,100933.44
2018-11-22T04:35:23.764Z,100934.25
2018-11-22T04:37:51.875Z,100924.61
2018-11-22T04:40:21.198Z,100931.23
2018-11-22T04:42:49.988Z,100932.98
2018-11-22T04:45:18.462Z,100932.56
2018-11-22T04:47:47.361Z,100937.97
2018-11-22T04:50:16.958Z,100934.00
2018-11-22T04:52:45.051Z,100932.72
2018-11-22T04:55:13.140Z,100931.03
2018-11-22T04:57:41.251Z,100934.64
2018-11-22T05:00:28.927Z,100934.55
2018-11-22T05:02:57.019Z,100940.12
2018-11-22T05:05:26.489Z,100944.91
2018-11-22T05:07:54.643Z,100943.45
2018-11-22T05:10:41.825Z,100941.71
2018-11-22T05:13:09.882Z,100943.82
2018-11-22T05:15:37.949Z,100941.44
2018-11-22T05:18:06.058Z,100940.86
2018-11-22T05:20:34.178Z,100939.80
2018-11-22T05:23:02.263Z,100943.56
2018-11-22T05:25:30.330Z,100938.73
2018-11-22T05:28:17.859Z,100937.17
2018-11-22T05:30:45.929Z,100944.48
2018-11-22T05:33:14.028Z,100944.36
2018-11-22T05:35:42.201Z,100948.06
2018-11-22T05:38:10.306Z,100949.89
2018-11-22T05:40:38.365Z,100941.66
2018-11-22T05:43:06.469Z,100949.11
2018-11-22T05:45:34.614Z,100949.63
2018-11-22T05:48:02.695Z,100952.55
2018-11-22T05:50:31.613Z,100953.05
2018-11-22T05:53:01.339Z,100957.56
2018-11-22T05:55:29.428Z,100951.77
2018-11-22T05:57:57.595Z,100956.54
2018-11-22T06:00:27.168Z,100958.60
2018-11-22T06:02:55.872Z,100957.86
2018-11-22T06:05:25.359Z,100960.77
2018-11-22T06:07:54.089Z,100966.63
2018-11-22T06:10:23.553Z,100962.24
2018-11-22T06:12:52.591Z,100967.30
2018-11-22T06:15:20.700Z,100961.81
2018-11-22T06:17:49.522Z,100968.09
2018-11-22T06:20:19.218Z,100969.34
2018-11-22T06:22:47.606Z,100966.48
2018-11-22T06:25:16.701Z,100971.52
2018-11-22T06:27:45.075Z,100964.53
2018-11-22T06:30:15.816Z,100972.03
2018-11-22T06:32:44.396Z,100969.34
2018-11-22T06:35:12.490Z,100970.23
2018-11-22T06:37:40.799Z,100971.98
2018-11-22T06:40:10.412Z,100968.28
2018-11-22T06:42:38.926Z,100974.34
2018-11-22T06:45:09.818Z,100983.60
2018-11-22T06:47:37.927Z,100977.83
2018-11-22T06:50:06.944Z,100978.47
2018-11-22T06:52:35.048Z,100976.92
2018-11-22T06:55:03.212Z,100980.20
2018-11-22T06:57:31.389Z,100976.44
2018-11-22T06:59:59.589Z,100975.20
2018-11-22T07:02:27.725Z,100981.17
2018-11-22T07:04:55.762Z,100976.02
2018-11-22T07:07:23.839Z,100978.04
2018-11-22T07:09:52.124Z,100977.55
2018-11-22T07:12:20.205Z,100975.39
2018-11-22T07:14:48.679Z,100974.16
2018-11-22T07:17:16.756Z,100978.89
2018-11-22T07:19:44.917Z,100981.36
2018-11-22T07:22:18.857Z,100980.67
2018-11-22T07:24:41.100Z,100980.73
2018-11-22T07:27:09.239Z,100980.33
2018-11-22T07:29:37.341Z,100986.51
2018-11-22T07:32:05.884Z,100986.17
2018-11-22T07:34:33.968Z,100995.03
2018-11-22T07:37:02.037Z,100988.27
2018-11-22T07:39:30.128Z,100988.75
2018-11-22T07:41:58.191Z,100984.92
2018-11-22T07:44:26.281Z,100987.58
2018-11-22T07:46:56.716Z,100985.98
2018-11-22T07:49:24.827Z,100986.74
2018-11-22T07:51:53.038Z,100991.01
2018-11-22T07:54:21.558Z,100986.34
2018-11-22T07:56:49.670Z,100990.58
2018-11-22T07:59:17.752Z,100990.42
2018-11-22T08:01:45.827Z,100989.67
2018-11-22T08:04:13.943Z,100988.55
2018-11-22T08:06:42.014Z,100984.93
2018-11-22T08:09:10.178Z,100989.94
2018-11-22T08:14:31.558Z,100989.80
2018-11-22T08:16:59.649Z,100994.29
2018-11-22T08:19:27.714Z,100992.84
2018-11-22T08:21:55.845Z,100989.03
2018-11-22T08:24:23.919Z,100992.81
2018-11-22T08:26:52.004Z,100995.10
2018-11-22T08:29:20.081Z,100992.32
2018-11-22T08:31:48.170Z,100987.29
2018-11-22T08:34:16.266Z,100997.27
2018-11-22T08:36:44.378Z,100998.11
2018-11-22T08:39:12.432Z,100998.09
2018-11-22T08:44:07.872Z,101006.11
2018-11-22T08:46:35.986Z,101006.73
2018-11-22T08:49:04.104Z,101008.23
2018-11-22T08:51:32.172Z,101008.25
2018-11-22T08:54:19.677Z,101013.61
2018-11-22T08:56:48.157Z,101022.34
2018-11-22T08:59:16.272Z,101020.31
2018-11-22T09:02:03.789Z,101022.53
2018-11-22T09:04:51.319Z,101021.81
2018-11-22T09:07:19.468Z,101020.31
2018-11-22T09:09:47.510Z,101021.75
2018-11-22T09:12:15.598Z,101024.22
2018-11-22T09:14:43.664Z,101020.66
2018-11-22T09:17:11.753Z,101027.80
2018-11-22T09:19:39.813Z,101028.22
2018-11-22T09:22:07.927Z,101022.06
2018-11-22T09:24:36.650Z,101028.45
2018-11-22T09:27:04.776Z,101031.91
2018-11-22T09:29:33.887Z,101031.45
2018-11-22T09:32:00.929Z,101036.13
2018-11-22T09:34:28.996Z,101040.24
2018-11-22T09:36:57.188Z,101036.17
2018-11-22T09:39:25.279Z,101040.09
2018-11-22T09:41:53.338Z,101040.81
2018-11-22T09:44:21.441Z,101048.20
2018-11-22T09:46:49.533Z,101048.84
2018-11-22T09:49:17.613Z,101044.70
2018-11-22T09:51:45.695Z,101052.12
2018-11-22T09:54:13.768Z,101052.98
2018-11-22T09:56:41.849Z,101054.45
2018-11-22T09:59:09.967Z,101056.26
2018-11-22T10:01:38.012Z,101054.36
2018-11-22T10:04:06.284Z,101051.38
2018-11-22T10:06:34.365Z,101052.52
2018-11-22T10:09:02.506Z,101051.45
2018-11-22T10:11:30.531Z,101046.63
2018-11-22T10:13:58.627Z,101049.75
2018-11-22T10:16:26.714Z,101056.21
2018-11-22T10:18:54.842Z,101043.90
2018-11-22T10:21:22.907Z,101050.70
2018-11-22T10:23:51.050Z,101046.50
2018-11-22T10:26:19.117Z,101050.69
2018-11-22T10:28:47.199Z,101046.63
2018-11-22T10:31:15.224Z,101048.36
2018-11-22T10:33:43.400Z,101047.98
2018-11-22T10:36:11.492Z,101045.60
2018-11-22T10:38:39.591Z,101041.09
2018-11-22T10:41:07.759Z,101038.89
2018-11-22T10:43:35.834Z,101042.35
2018-11-22T10:46:03.896Z,101046.59
2018-11-22T10:48:31.985Z,101045.20
2018-11-22T10:51:00.133Z,101045.09
2018-11-22T10:53:28.224Z,101040.67
2018-11-22T10:55:56.280Z,101042.92
2018-11-22T10:58:24.427Z,101039.64
2018-11-22T11:01:11.594Z,101044.34
2018-11-22T11:03:58.816Z,101043.59
2018-11-22T11:06:46.024Z,101042.23
2018-11-22T11:09:14.146Z,101042.05
2018-11-22T11:11:42.233Z,101050.31
2018-11-22T11:14:10.310Z,101056.02
2018-11-22T11:16:38.406Z,101048.89
2018-11-22T11:19:06.548Z,101051.71
2018-11-22T11:21:34.624Z,101053.52
2018-11-22T11:24:02.710Z,101053.61
2018-11-22T11:26:30.798Z,101050.23
2018-11-22T11:28:58.873Z,101052.09
2018-11-22T11:31:26.943Z,101043.28
2018-11-22T11:33:55.072Z,101043.92
2018-11-22T11:36:23.140Z,101048.23
2018-11-22T11:38:51.239Z,101046.53
2018-11-22T11:41:19.441Z,101042.02
2018-11-22T11:43:47.707Z,101037.73
2018-11-22T11:49:12.007Z,101032.71
2018-11-22T11:51:40.080Z,101026.42
2018-11-22T11:54:08.165Z,101026.29
2018-11-22T11:56:36.295Z,101025.23
2018-11-22T11:59:04.620Z,101021.20
2018-11-22T12:01:32.659Z,101018.41
2018-11-22T12:04:00.764Z,101016.40
2018-11-22T12:06:28.893Z,101016.33
2018-11-22T12:08:56.974Z,101013.16
2018-11-22T12:11:25.045Z,101008.14
2018-11-22T12:13:53.418Z,101011.48
2018-11-22T12:16:21.509Z,101008.06
2018-11-22T12:18:49.612Z,101010.55
2018-11-22T12:21:17.728Z,101007.36
2018-11-22T12:23:45.811Z,101011.13
2018-11-22T12:26:13.886Z,101010.03
2018-11-22T12:28:41.992Z,101006.63
2018-11-22T12:31:10.130Z,101003.20
2018-11-22T12:33:38.148Z,101006.34
2018-11-22T12:36:25.621Z,101005.56
2018-11-22T12:38:53.709Z,101011.10
2018-11-22T12:41:21.773Z,101011.06
2018-11-22T12:43:49.868Z,101012.22
2018-11-22T12:46:17.947Z,101011.66
2018-11-22T12:48:46.023Z,101002.41
2018-11-22T12:51:14.149Z,100998.04
2018-11-22T12:53:42.240Z,101008.89
2018-11-22T12:56:10.307Z,101001.42
2018-11-22T12:58:38.393Z,101004.85
2018-11-22T13:01:06.449Z,101006.16
2018-11-22T13:03:34.551Z,101002.36
2018-11-22T13:06:02.645Z,101005.19
2018-11-22T13:08:30.765Z,101003.98
2018-11-22T13:10:58.828Z,101006.63
2018-11-22T13:13:26.903Z,100999.64
2018-11-22T13:15:54.968Z,101000.35
2018-11-22T13:18:23.049Z,100997.35
2018-11-22T13:20:51.124Z,101001.39
2018-11-22T13:23:19.195Z,101006.84
2018-11-22T13:25:47.303Z,100998.92
2018-11-22T13:28:15.396Z,101005.58
2018-11-22T13:30:43.478Z,101002.28
2018-11-22T13:33:11.615Z,101004.15
2018-11-22T13:35:39.737Z,101003.65
2018-11-22T13:38:07.845Z,100995.18
2018-11-22T13:40:35.978Z,100992.86
2018-11-22T13:43:04.351Z,100997.30
2018-11-22T13:45:32.463Z,100999.11
2018-11-22T13:48:00.549Z,101000.00
2018-11-22T13:50:30.176Z,101002.93
2018-11-22T13:53:20.461Z,101001.73
2018-11-22T13:55:45.484Z,100998.52
2018-11-22T13:58:13.571Z,100990.88
2018-11-22T14:00:41.669Z,100992.34
2018-11-22T14:03:09.773Z,101003.34
2018-11-22T14:05:37.867Z,100997.20
2018-11-22T14:08:05.969Z,100992.24
2018-11-22T14:10:34.061Z,100989.80
2018-11-22T14:13:02.210Z,100987.58
2018-11-22T14:15:31.289Z,100996.48
2018-11-22T14:18:18.480Z,100997.06
2018-11-22T14:20:46.562Z,100992.36
2018-11-22T14:23:14.657Z,100985.00
2018-11-22T14:25:49.021Z,100989.95
2018-11-22T14:28:11.015Z,100985.66
2018-11-22T14:30:39.026Z,100993.97
2018-11-22T14:33:07.103Z,100991.30
2018-11-22T14:35:35.215Z,100996.55
2018-11-22T14:38:03.357Z,100998.40
2018-11-22T14:40:32.352Z,101001.50
2018-11-22T14:43:00.628Z,100996.59
2018-11-22T14:45:29.519Z,100992.95
2018-11-22T14:47:58.634Z,100993.61
2018-11-22T14:50:47.459Z,100990.20
2018-11-22T14:53:35.770Z,100997.34
2018-11-22T14:56:03.865Z,101002.09
2018-11-22T14:58:31.915Z,101000.93
2018-11-22T15:01:00.053Z,101003.46
2018-11-22T15:03:28.105Z,101008.93
2018-11-22T15:05:56.272Z,101002.38
2018-11-22T15:08:24.332Z,100996.87
2018-11-22T15:10:52.538Z,101008.64
2018-11-22T15:13:20.649Z,101008.69
2018-11-22T15:15:48.736Z,101011.28
2018-11-22T15:18:16.940Z,101018.55
2018-11-22T15:20:45.079Z,101018.72
2018-11-22T15:23:13.143Z,101019.16
2018-11-22T15:25:41.206Z,101019.34
2018-11-22T15:28:09.281Z,101019.97
2018-11-22T15:30:37.480Z,101015.69
2018-11-22T15:33:05.813Z,101016.33
2018-11-22T15:35:33.917Z,101014.64
2018-11-22T15:38:02.051Z,101021.95
2018-11-22T15:40:30.128Z,101019.72
2018-11-22T15:42:59.837Z,101030.13
2018-11-22T15:45:34.782Z,101027.47
2018-11-22T15:47:56.735Z,101021.99
2018-11-22T15:50:26.094Z,101026.09
2018-11-22T15:52:54.295Z,101033.25
2018-11-22T15:55:22.975Z,101038.30
2018-11-22T15:57:52.492Z,101039.69
2018-11-22T16:00:42.976Z,101035.23
2018-11-22T16:03:11.099Z,101041.98
2018-11-22T16:05:39.199Z,101037.47
2018-11-22T16:08:07.303Z,101032.31
2018-11-22T16:10:36.354Z,101032.20
2018-11-22T16:13:23.892Z,101039.57
2018-11-22T16:15:55.073Z,101043.63
2018-11-22T16:18:23.423Z,101042.79
2018-11-22T16:20:51.488Z,101042.09
2018-11-22T16:23:19.587Z,101045.53
2018-11-22T16:25:47.680Z,101046.43
2018-11-22T16:28:15.794Z,101042.45
2018-11-22T16:30:44.302Z,101048.54
2018-11-22T16:33:12.421Z,101049.78
2018-11-22T16:35:40.577Z,101053.34
2018-11-22T16:38:08.710Z,101059.33
2018-11-22T16:40:36.760Z,101055.03
2018-11-22T16:43:04.975Z,101061.06
2018-11-22T16:45:34.440Z,101057.09
2018-11-22T16:48:21.949Z,101061.69
2018-11-22T16:50:50.020Z,101073.80
2018-11-22T16:53:18.091Z,101066.55
2018-11-22T16:55:46.212Z,101065.79
2018-11-22T16:58:14.314Z,101065.78
2018-11-22T17:00:42.391Z,101071.43
2018-11-22T17:03:12.281Z,101071.49
2018-11-22T17:05:40.955Z,101067.75
2018-11-22T17:08:09.563Z,101059.73
2018-11-22T17:10:38.194Z,101059.06
2018-11-22T17:13:06.458Z,101055.82
2018-11-22T17:15:35.876Z,101049.74
2018-11-22T17:18:04.614Z,101058.77
2018-11-22T17:20:33.142Z,101065.48
2018-11-22T17:23:01.742Z,101061.58
2018-11-22T17:25:31.133Z,101062.04
2018-11-22T17:28:00.652Z,101063.56
2018-11-22T17:30:47.839Z,101062.34
2018-11-22T17:33:16.000Z,101062.83
2018-11-22T17:35:44.085Z,101066.37
2018-11-22T17:38:12.965Z,101064.60
2018-11-22T17:40:42.599Z,101069.53
2018-11-22T17:43:10.736Z,101067.31
2018-11-22T17:45:40.199Z,101063.95
2018-11-22T17:48:08.575Z,101065.03
2018-11-22T17:50:38.506Z,101069.46
2018-11-22T17:53:07.312Z,101071.52
2018-11-22T17:55:35.649Z,101068.07
2018-11-22T17:58:03.764Z,101069.97
2018-11-22T18:00:51.003Z,101061.86
2018-11-22T18:03:19.431Z,101072.89
2018-11-22T18:05:47.837Z,101065.70
2018-11-22T18:08:15.935Z,101064.60
2018-11-22T18:10:44.338Z,101072.76
2018-11-22T18:13:12.446Z,101073.23
2018-11-22T18:15:59.835Z,101068.80
2018-11-22T18:18:28.997Z,101067.61
2018-11-22T18:20:57.625Z,101067.83
2018-11-22T18:23:27.260Z,101074.53
2018-11-22T18:26:20.833Z,101072.28
2018-11-22T18:28:49.101Z,101077.66
2018-11-22T18:31:20.447Z,101071.83
2018-11-22T18:40:11.600Z,101071.55
2018-11-22T18:42:45.470Z,101067.59
2018-11-22T18:45:39.581Z,101070.61
2018-11-22T18:48:09.456Z,101076.42
2018-11-22T18:50:40.938Z,101085.66
2018-11-22T18:53:12.499Z,101083.28
2018-11-22T18:59:24.510Z,101087.61
2018-11-22T19:01:55.455Z,101086.41
2018-11-22T19:04:22.387Z,101086.51
2018-11-22T19:06:51.318Z,101085.94
2018-11-22T19:09:19.634Z,101089.30
2018-11-22T19:12:07.791Z,101087.23
2018-11-22T19:14:38.275Z,101083.90
2018-11-22T19:17:08.411Z,101081.73
2018-11-22T19:19:40.547Z,101080.73
2018-11-22T19:22:09.957Z,101077.63
2018-11-22T19:24:38.508Z,101089.88
2018-11-22T19:27:14.643Z,101087.25
2018-11-22T19:29:44.076Z,101085.67
2018-11-22T19:32:20.538Z,101087.05
2018-11-22T19:34:49.979Z,101084.63
2018-11-22T19:37:20.405Z,101083.42
2018-11-22T19:40:08.281Z,101087.00
2018-11-22T19:42:39.557Z,101085.69
2018-11-22T19:45:13.606Z,101090.67
2018-11-22T19:47:42.778Z,101088.03
2018-11-22T19:56:43.162Z,101093.08
2018-11-22T20:05:11.725Z,101098.86
2018-11-22T20:07:44.408Z,101100.61
2018-11-22T20:10:33.727Z,101095.92
2018-11-22T20:16:26.889Z,101095.98
2018-11-22T20:18:56.415Z,101102.98
2018-11-22T20:21:25.309Z,101106.71
2018-11-22T20:23:54.952Z,101104.92
2018-11-22T20:26:23.665Z,101104.71
2018-11-22T20:29:16.128Z,101108.88
2018-11-22T20:31:44.418Z,101108.88
2018-11-22T20:34:14.733Z,101107.55
2018-11-22T20:40:16.092Z,101106.25
2018-11-22T20:42:46.326Z,101106.38
2018-11-22T20:49:09.625Z,101108.50
2018-11-22T20:54:45.071Z,101105.42
2018-11-22T20:57:15.776Z,101105.52
2018-11-22T20:59:46.862Z,101110.20
2018-11-22T21:14:08.101Z,101104.24
2018-11-22T21:16:41.956Z,101107.48
2018-11-22T21:19:13.311Z,101098.02
2018-11-22T21:21:50.161Z,101096.14
2018-11-22T21:24:21.386Z,101094.02
2018-11-22T21:27:08.640Z,101095.48
2018-11-22T21:32:49.455Z,101097.71
2018-11-22T21:35:20.399Z,101097.10
2018-11-22T21:37:50.064Z,101094.06
2018-11-22T21:40:32.449Z,101103.09
2018-11-22T21:43:00.890Z,101102.78
2018-11-22T21:45:31.852Z,101102.25
2018-11-22T21:48:00.653Z,101108.37
2018-11-22T21:50:29.687Z,101097.00
2018-11-22T21:53:17.882Z,101096.89
2018-11-22T21:58:43.973Z,101098.32
2018-11-22T22:02:10.177Z,101097.64
2018-11-22T22:11:21.105Z,101103.26
2018-11-22T22:22:27.017Z,101094.22
2018-11-22T22:24:59.437Z,101093.38
2018-11-22T22:27:28.619Z,101092.70
2018-11-22T22:29:59.729Z,101095.23
2018-11-22T22:33:11.167Z,101101.94
2018-11-22T22:35:40.343Z,101102.14
2018-11-22T22:38:37.653Z,101095.41
2018-11-22T22:41:10.760Z,101102.25
2018-11-22T22:43:39.311Z,101104.85
2018-11-22T22:46:10.562Z,101100.55
2018-11-22T22:48:39.027Z,101096.97
2018-11-22T22:51:07.616Z,101095.52
2018-11-22T22:53:41.837Z,101103.23
2018-11-22T22:56:19.538Z,101106.07
2018-11-22T22:58:48.475Z,101101.98
2018-11-22T23:01:16.723Z,101104.11
2018-11-22T23:03:45.319Z,101100.38
2018-11-22T23:06:19.707Z,101102.75
2018-11-22T23:08:48.815Z,101098.17
2018-11-22T23:16:44.878Z,101087.18
2018-11-22T23:19:13.059Z,101085.66
2018-11-22T23:21:44.156Z,101082.65
2018-11-22T23:24:16.217Z,101082.03
2018-11-22T23:26:44.537Z,101083.73
2018-11-22T23:29:13.120Z,101076.52
2018-11-22T23:31:41.661Z,101073.64
2018-11-22T23:34:32.234Z,101078.41
2018-11-22T23:37:00.535Z,101073.66
2018-11-22T23:39:28.938Z,101078.05
2018-11-22T23:42:00.188Z,101075.64
2018-11-22T23:44:28.396Z,101068.00
2018-11-22T23:46:59.772Z,101067.05
2018-11-22T23:49:28.021Z,101064.88
2018-11-22T23:51:56.679Z,101063.79
2018-11-22T23:54:28.446Z,101065.25
2018-11-22T23:56:56.998Z,101066.67
2018-11-22T23:59:44.732Z,101071.34
